キエフ/ボリースピリ の空港の天気 - METARとTAF

ボリースピリ国際空港(キエフ) ( UKBB / KBP ) - ウクライナ ボリスピリ (キエフ近郊)
飛行場実況気象(Metar)
観測時間07/29 05:30 EEST (07/29 02:30 UTC)
風向・風速不定 1m/s
視程10km以上
天気現象
なし
気温17℃
湿度94%
気圧1011hPa
METARUKBB 290230Z VRB01MPS CAVOK 17/16 Q1011 R88/CLRD// NOSIG
過去の天気等 Google飛行場航空写真 Wunderground天気予報

過去48時間のMETAR

飛行場予報(TAF)
発表時間: 7/29 02:06 EEST (7/28 23:06 UTC)
予報対象時間: 29日3時 EEST ~ 30日3時 EEST
風向・風速西南西 3m/s
視程10km以上
全天の8割程度の雲 雲底高度 910m
29日3時 EEST ~ 29日8時 EEST に一時的に
風向・風速南西 8m/s 瞬間風速 13m/s
視程2100m
天気現象弱い雷雨
全天の4割程度の積乱雲 雲底高度 760m
29日8時 EEST ~ 29日10時 EEST に徐々に
風向・風速南西 4m/s 瞬間風速 9m/s
29日12時 EEST ~ 29日21時 EEST に一時的に
風向・風速不定 9m/s 瞬間風速 20m/s
視程1000m
天気現象雷雨ひょう スコール
全天の4割程度の雲 雲底高度 240m
全天の8割程度の積乱雲 雲底高度 760m
TAF UKBB 282306Z 2900/2924 25003MPS 9999 BKN030 TX32/2912Z TN19/2902Z
TEMPO 2900/2905 22008G13MPS 2100 -TSRA SCT025CB
BECMG 2905/2907 22004G09MPS
TEMPO 2909/2918 VRB09G20MPS 1000 TSRAGR SQ SCT008 BKN025CB